createdAt,value
2019-05-13T00:02:20.857Z,69.88
2019-05-13T00:04:49.035Z,69.99
2019-05-13T00:07:17.151Z,70.02
2019-05-13T00:09:45.311Z,69.96
2019-05-13T00:12:13.824Z,70.13
2019-05-13T00:14:43.392Z,70.30
2019-05-13T00:17:14.396Z,70.35
2019-05-13T00:19:44.104Z,70.43
2019-05-13T00:22:13.910Z,70.23
2019-05-13T00:24:43.705Z,70.45
2019-05-13T00:27:11.332Z,70.70
2019-05-13T00:29:39.452Z,70.66
2019-05-13T00:32:07.602Z,70.57
2019-05-13T00:34:35.823Z,70.62
2019-05-13T00:37:11.092Z,70.61
2019-05-13T00:39:33.898Z,70.68
2019-05-13T00:42:04.084Z,70.99
2019-05-13T00:44:33.781Z,71.10
2019-05-13T00:47:04.173Z,71.24
2019-05-13T00:49:31.707Z,71.39
2019-05-13T00:51:59.823Z,71.57
2019-05-13T00:54:27.963Z,71.75
2019-05-13T00:56:56.092Z,72.01
2019-05-13T00:59:24.399Z,72.07
2019-05-13T01:01:53.279Z,71.97
2019-05-13T01:04:23.260Z,72.07
2019-05-13T01:06:53.615Z,72.08
2019-05-13T01:09:23.573Z,72.21
2019-05-13T01:11:53.544Z,72.42
2019-05-13T01:14:23.349Z,72.89
2019-05-13T01:16:50.961Z,73.15
2019-05-13T01:19:19.073Z,73.12
2019-05-13T01:21:47.250Z,73.11
2019-05-13T01:24:15.373Z,73.14
2019-05-13T01:26:43.925Z,73.17
2019-05-13T01:29:13.469Z,73.11
2019-05-13T01:31:43.442Z,73.24
2019-05-13T01:34:14.079Z,73.47
2019-05-13T01:36:41.644Z,73.73
2019-05-13T01:39:09.753Z,73.60
2019-05-13T01:41:37.964Z,73.63
2019-05-13T01:44:06.130Z,73.56
2019-05-13T01:46:37.063Z,73.55
2019-05-13T01:49:05.722Z,73.74
2019-05-13T01:51:33.858Z,73.74
2019-05-13T01:54:04.384Z,73.79
2019-05-13T01:56:33.795Z,73.79
2019-05-13T01:59:04.768Z,74.65
2019-05-13T02:01:33.706Z,73.87
2019-05-13T02:04:03.987Z,73.75
2019-05-13T02:06:33.669Z,73.73
2019-05-13T02:09:03.804Z,73.75
2019-05-13T02:11:33.984Z,73.81
2019-05-13T02:14:05.625Z,73.86
2019-05-13T02:16:34.222Z,73.89
2019-05-13T02:19:03.945Z,73.98
2019-05-13T02:21:33.667Z,74.40
2019-05-13T02:24:04.231Z,74.40
2019-05-13T02:26:31.860Z,74.41
2019-05-13T02:29:00.101Z,74.44
2019-05-13T02:31:41.405Z,74.60
2019-05-13T02:33:58.067Z,74.62
2019-05-13T02:36:26.232Z,74.58
2019-05-13T02:38:54.335Z,74.54
2019-05-13T02:41:22.939Z,74.56
2019-05-13T02:43:52.651Z,74.65
2019-05-13T02:46:22.636Z,74.54
2019-05-13T02:48:52.763Z,74.58
2019-05-13T02:51:23.021Z,74.59
2019-05-13T02:53:52.319Z,74.62
2019-05-13T02:56:22.654Z,74.68
2019-05-13T02:58:52.559Z,74.81
2019-05-13T03:01:22.240Z,74.69
2019-05-13T03:03:52.901Z,74.69
2019-05-13T03:06:22.303Z,74.84
2019-05-13T03:08:53.981Z,74.67
2019-05-13T03:11:22.480Z,74.71
2019-05-13T03:13:52.635Z,74.87
2019-05-13T03:16:19.406Z,74.96
2019-05-13T03:18:47.508Z,74.92
2019-05-13T03:21:15.646Z,74.99
2019-05-13T03:23:44.458Z,74.83
2019-05-13T03:26:13.458Z,75.11
2019-05-13T03:28:43.517Z,74.97
2019-05-13T03:31:16.971Z,75.04
2019-05-13T03:33:46.064Z,75.16
2019-05-13T03:36:16.846Z,75.14
2019-05-13T03:38:59.770Z,75.18
2019-05-13T03:41:13.792Z,75.24
2019-05-13T03:43:43.467Z,75.31
2019-05-13T03:46:12.715Z,75.23
2019-05-13T03:48:42.862Z,75.27
2019-05-13T03:51:13.230Z,75.08
2019-05-13T03:53:43.183Z,74.96
2019-05-13T03:56:12.820Z,74.90
2019-05-13T03:58:43.332Z,74.80
2019-05-13T04:01:12.974Z,75.02
2019-05-13T04:03:43.884Z,75.09
2019-05-13T04:06:13.562Z,75.17
2019-05-13T04:08:43.412Z,75.52
2019-05-13T04:11:12.568Z,75.42
2019-05-13T04:13:42.923Z,75.79
2019-05-13T04:16:12.771Z,75.93
2019-05-13T04:18:42.541Z,76.18
2019-05-13T04:21:13.124Z,76.25
2019-05-13T04:23:42.557Z,76.46
2019-05-13T04:26:10.163Z,76.69
2019-05-13T04:28:38.437Z,76.92
2019-05-13T04:31:06.569Z,77.63
2019-05-13T04:33:34.787Z,78.49
2019-05-13T04:36:02.973Z,78.09
2019-05-13T04:38:33.180Z,77.95
2019-05-13T04:41:03.918Z,77.74
2019-05-13T04:43:34.852Z,77.48
2019-05-13T04:46:02.669Z,77.25
2019-05-13T04:48:33.910Z,77.02
2019-05-13T04:51:03.038Z,76.94
2019-05-13T04:53:33.387Z,77.55
2019-05-13T04:56:03.093Z,76.98
2019-05-13T04:58:32.187Z,77.16
2019-05-13T05:01:59.449Z,77.37
2019-05-13T05:04:44.070Z,77.50
2019-05-13T05:07:52.536Z,77.47
2019-05-13T05:11:02.725Z,77.57
2019-05-13T05:14:02.743Z,77.41
2019-05-13T05:17:04.247Z,77.41
2019-05-13T05:20:16.406Z,77.23
2019-05-13T05:23:24.506Z,76.97
2019-05-13T05:26:15.320Z,76.83
2019-05-13T05:29:42.268Z,76.57
2019-05-13T05:32:23.873Z,76.62
2019-05-13T05:35:26.829Z,76.85
2019-05-13T05:38:18.338Z,76.95
2019-05-13T05:40:48.133Z,77.18
2019-05-13T05:43:18.905Z,77.27
2019-05-13T05:45:47.085Z,77.45
2019-05-13T05:48:16.979Z,77.66
2019-05-13T05:50:46.693Z,77.58
2019-05-13T05:53:16.753Z,77.64
2019-05-13T05:55:48.039Z,77.67
2019-05-13T05:58:18.365Z,77.52
2019-05-13T06:00:52.069Z,77.33
2019-05-13T06:03:21.835Z,77.30
2019-05-13T06:05:51.268Z,77.27
2019-05-13T06:08:22.067Z,77.14
2019-05-13T06:10:52.915Z,76.94
2019-05-13T06:13:21.423Z,76.84
2019-05-13T06:15:51.361Z,76.77
2019-05-13T06:18:22.118Z,76.56
2019-05-13T06:20:51.221Z,76.34
2019-05-13T06:23:22.170Z,76.17
2019-05-13T06:25:52.410Z,76.03
2019-05-13T06:28:21.707Z,75.99
2019-05-13T06:30:52.594Z,75.68
2019-05-13T06:33:21.245Z,75.30
2019-05-13T06:35:51.926Z,75.03
2019-05-13T06:38:19.477Z,74.41
2019-05-13T06:40:59.268Z,74.20
2019-05-13T06:43:17.500Z,73.83
2019-05-13T06:45:45.631Z,73.54
2019-05-13T06:48:13.758Z,73.41
2019-05-13T06:50:41.897Z,72.82
2019-05-13T06:53:12.057Z,72.31
2019-05-13T06:55:41.742Z,71.75
2019-05-13T06:58:11.390Z,71.45
2019-05-13T07:00:42.507Z,71.34
2019-05-13T07:03:11.956Z,70.76
2019-05-13T07:05:42.163Z,70.10
2019-05-13T07:08:11.795Z,69.72
2019-05-13T07:10:41.458Z,69.30
2019-05-13T07:13:11.216Z,68.80
2019-05-13T07:15:41.430Z,68.80
2019-05-13T07:18:11.761Z,68.76
2019-05-13T07:20:42.530Z,68.17
2019-05-13T07:23:12.156Z,67.14
2019-05-13T07:25:42.027Z,65.70
2019-05-13T07:28:09.574Z,65.72
2019-05-13T07:30:42.398Z,65.07
2019-05-13T07:33:12.554Z,65.19
2019-05-13T07:35:44.364Z,65.13
2019-05-13T07:38:11.760Z,63.97
2019-05-13T07:40:41.833Z,64.04
2019-05-13T07:43:12.062Z,64.12
2019-05-13T07:45:42.075Z,63.77
2019-05-13T07:48:20.653Z,63.71
2019-05-13T07:50:51.664Z,62.81
2019-05-13T07:53:12.199Z,62.19
2019-05-13T07:55:39.166Z,62.64
2019-05-13T07:58:07.324Z,62.70
2019-05-13T08:00:35.432Z,62.61
2019-05-13T08:03:03.648Z,62.30
2019-05-13T08:05:31.842Z,61.69
2019-05-13T08:08:02.290Z,60.15
2019-05-13T08:10:31.907Z,59.92
2019-05-13T08:13:02.199Z,59.19
2019-05-13T08:15:31.684Z,57.20
2019-05-13T08:18:02.060Z,57.31
2019-05-13T08:20:29.306Z,57.48
2019-05-13T08:22:57.441Z,57.41
2019-05-13T08:25:25.783Z,58.01
2019-05-13T08:27:53.907Z,58.22
2019-05-13T08:30:22.749Z,57.24
2019-05-13T08:32:52.309Z,56.23
2019-05-13T08:35:22.591Z,53.97
2019-05-13T08:37:52.016Z,53.97
2019-05-13T08:40:23.294Z,51.89
2019-05-13T08:42:52.033Z,48.36
2019-05-13T08:45:22.364Z,46.91
2019-05-13T08:47:51.204Z,46.15
2019-05-13T08:50:21.885Z,47.67
2019-05-13T08:52:51.244Z,46.47
2019-05-13T08:55:21.433Z,46.00
2019-05-13T08:57:51.471Z,45.42
2019-05-13T09:00:41.422Z,43.35
2019-05-13T09:03:12.038Z,43.17
2019-05-13T09:05:41.312Z,41.50
2019-05-13T09:08:11.402Z,41.35
2019-05-13T09:10:41.369Z,40.42
2019-05-13T09:13:09.339Z,40.19
2019-05-13T09:15:37.533Z,39.32
2019-05-13T09:18:05.700Z,38.28
2019-05-13T09:20:33.858Z,37.80
2019-05-13T09:23:03.937Z,36.56
2019-05-13T09:25:32.141Z,36.62
2019-05-13T09:28:02.598Z,36.07
2019-05-13T09:30:31.595Z,34.99
2019-05-13T09:33:01.959Z,34.84
2019-05-13T09:35:31.591Z,35.25
2019-05-13T09:38:03.113Z,35.62
2019-05-13T09:40:31.414Z,36.51
2019-05-13T09:42:59.555Z,36.55
2019-05-13T09:45:27.709Z,36.67
2019-05-13T09:47:55.816Z,36.86
2019-05-13T09:50:31.459Z,36.56
2019-05-13T09:52:54.939Z,36.28
2019-05-13T09:55:28.965Z,36.45
2019-05-13T09:57:52.895Z,36.95
2019-05-13T10:00:21.772Z,36.77
2019-05-13T10:02:51.647Z,36.88
2019-05-13T10:05:22.374Z,36.97
2019-05-13T10:07:50.697Z,36.96
2019-05-13T10:10:18.975Z,37.12
2019-05-13T10:13:06.081Z,37.22
2019-05-13T10:15:17.123Z,37.05
2019-05-13T10:17:45.284Z,36.62
2019-05-13T10:20:14.847Z,35.85
2019-05-13T10:22:42.975Z,35.55
2019-05-13T10:25:14.106Z,35.47
2019-05-13T10:27:46.067Z,35.09
2019-05-13T10:30:14.335Z,34.89
2019-05-13T10:32:42.815Z,35.38
2019-05-13T10:35:11.468Z,35.60
2019-05-13T10:37:41.856Z,34.92
2019-05-13T10:40:11.603Z,33.53
2019-05-13T10:42:39.979Z,32.45
2019-05-13T10:45:08.081Z,32.29
2019-05-13T10:47:36.227Z,31.93
2019-05-13T10:50:04.992Z,31.34
2019-05-13T10:52:33.154Z,31.31
2019-05-13T10:55:03.009Z,30.35
2019-05-13T10:57:32.032Z,28.47
2019-05-13T11:00:03.167Z,28.09
2019-05-13T11:02:32.723Z,27.30
2019-05-13T11:05:02.921Z,27.81
2019-05-13T11:07:32.066Z,27.96
2019-05-13T11:10:00.092Z,27.93
2019-05-13T11:12:29.580Z,27.76
2019-05-13T11:14:57.721Z,27.52
2019-05-13T11:17:30.876Z,27.42
2019-05-13T11:19:55.701Z,27.42
2019-05-13T11:22:23.892Z,28.14
2019-05-13T11:24:52.077Z,28.60
2019-05-13T11:27:23.281Z,28.56
2019-05-13T11:29:52.381Z,27.61
2019-05-13T11:32:21.614Z,27.96
2019-05-13T11:34:52.120Z,27.66
2019-05-13T11:37:19.626Z,27.24
2019-05-13T11:39:47.784Z,26.48
2019-05-13T11:42:15.927Z,26.14
2019-05-13T11:44:44.131Z,26.05
2019-05-13T11:47:12.812Z,25.75
2019-05-13T11:49:42.598Z,25.97
2019-05-13T11:52:11.642Z,25.67
2019-05-13T11:54:42.569Z,24.97
2019-05-13T11:57:12.525Z,24.55
2019-05-13T11:59:42.981Z,24.41
2019-05-13T12:02:13.256Z,24.57
2019-05-13T12:04:43.043Z,24.77
2019-05-13T12:07:12.990Z,24.83
2019-05-13T12:09:39.711Z,25.31
2019-05-13T12:12:07.857Z,25.66
2019-05-13T12:14:50.654Z,25.53
2019-05-13T12:17:06.014Z,24.29
2019-05-13T12:19:34.109Z,23.71
2019-05-13T12:22:02.991Z,23.68
2019-05-13T12:24:31.531Z,24.37
2019-05-13T12:27:03.300Z,23.97
2019-05-13T12:29:29.513Z,23.79
2019-05-13T12:31:57.832Z,23.75
2019-05-13T12:34:25.930Z,23.45
2019-05-13T12:36:54.030Z,23.57
2019-05-13T12:39:23.899Z,23.63
2019-05-13T12:41:53.734Z,23.86
2019-05-13T12:44:22.830Z,23.85
2019-05-13T12:46:54.115Z,23.88
2019-05-13T12:49:22.057Z,23.49
2019-05-13T12:51:51.692Z,24.54
2019-05-13T12:54:23.444Z,24.54
2019-05-13T12:56:52.411Z,25.56
2019-05-13T12:59:22.231Z,25.97
2019-05-13T13:01:51.945Z,26.37
2019-05-13T13:04:23.632Z,26.32
2019-05-13T13:06:52.789Z,27.01
2019-05-13T13:09:22.357Z,26.84
2019-05-13T13:11:49.388Z,27.75
2019-05-13T13:14:17.926Z,28.79
2019-05-13T13:16:46.775Z,29.10
2019-05-13T13:19:15.246Z,28.72
2019-05-13T13:21:44.997Z,28.53
2019-05-13T13:24:13.105Z,28.29
2019-05-13T13:26:42.831Z,28.91
2019-05-13T13:29:11.092Z,29.82
2019-05-13T13:31:43.297Z,29.98
2019-05-13T13:34:16.463Z,30.13
2019-05-13T13:36:39.245Z,30.13
2019-05-13T13:39:07.815Z,30.40
2019-05-13T13:41:35.906Z,30.42
2019-05-13T13:44:05.425Z,31.36
2019-05-13T13:46:42.224Z,31.13
2019-05-13T13:49:03.808Z,31.36
2019-05-13T13:51:34.384Z,31.35
2019-05-13T13:54:01.820Z,31.33
2019-05-13T13:56:32.708Z,31.61
2019-05-13T13:59:00.127Z,31.80
2019-05-13T14:01:32.457Z,31.55
2019-05-13T14:04:02.806Z,31.94
2019-05-13T14:07:22.387Z,32.05
2019-05-13T14:09:01.430Z,32.19
2019-05-13T14:11:29.304Z,32.47
2019-05-13T14:13:57.397Z,32.65
2019-05-13T14:16:31.316Z,32.04
2019-05-13T14:18:55.472Z,32.23
2019-05-13T14:21:23.767Z,32.27
2019-05-13T14:23:52.203Z,32.57
2019-05-13T14:26:22.236Z,32.47
2019-05-13T14:28:53.547Z,32.53
2019-05-13T14:31:21.601Z,32.73
2019-05-13T14:33:52.034Z,33.03
2019-05-13T14:36:22.639Z,33.52
2019-05-13T14:38:52.841Z,33.38
2019-05-13T14:41:21.798Z,33.23
2019-05-13T14:43:51.461Z,33.34
2019-05-13T14:46:24.918Z,33.21
2019-05-13T14:48:49.054Z,33.28
2019-05-13T14:51:17.184Z,32.63
2019-05-13T14:53:45.261Z,32.93
2019-05-13T14:56:14.375Z,33.32
2019-05-13T14:58:42.778Z,33.19
2019-05-13T15:01:17.910Z,32.94
2019-05-13T15:03:41.576Z,32.93
2019-05-13T15:06:11.985Z,32.78
2019-05-13T15:08:42.170Z,32.92
2019-05-13T15:11:09.730Z,32.76
2019-05-13T15:13:37.839Z,32.18
2019-05-13T15:16:06.001Z,31.99
2019-05-13T15:18:34.135Z,32.54
2019-05-13T15:21:03.984Z,32.68
2019-05-13T15:23:32.115Z,32.24
2019-05-13T15:26:02.165Z,31.70
2019-05-13T15:28:31.634Z,31.03
2019-05-13T15:31:00.154Z,30.64
2019-05-13T15:33:28.865Z,30.51
2019-05-13T15:35:57.036Z,30.61
2019-05-13T15:38:25.163Z,30.53
2019-05-13T15:40:53.286Z,29.56
2019-05-13T15:43:22.389Z,28.83
2019-05-13T15:45:51.438Z,28.03
2019-05-13T15:48:21.574Z,28.06
2019-05-13T15:50:51.358Z,28.15
2019-05-13T15:53:21.401Z,28.44
2019-05-13T15:55:51.167Z,28.57
2019-05-13T15:58:19.209Z,27.89
2019-05-13T16:00:47.434Z,28.03
2019-05-13T16:03:17.161Z,28.82
2019-05-13T16:05:45.311Z,28.93
2019-05-13T16:08:20.775Z,28.66
2019-05-13T16:10:54.850Z,28.19
2019-05-13T16:13:27.836Z,27.34
2019-05-13T16:15:56.146Z,26.98
2019-05-13T16:18:24.299Z,26.63
2019-05-13T16:20:54.611Z,26.92
2019-05-13T16:23:22.911Z,27.41
2019-05-13T16:25:52.133Z,28.01
2019-05-13T16:28:20.347Z,28.59
2019-05-13T16:30:48.464Z,28.65
2019-05-13T16:33:16.662Z,28.88
2019-05-13T16:35:47.523Z,29.07
2019-05-13T16:38:15.679Z,29.52
2019-05-13T16:40:43.810Z,30.23
2019-05-13T16:43:12.878Z,31.02
2019-05-13T16:45:42.321Z,31.46
2019-05-13T16:48:12.352Z,32.39
2019-05-13T16:50:41.838Z,32.99
2019-05-13T16:53:10.119Z,33.78
2019-05-13T16:55:38.195Z,34.33
2019-05-13T16:58:06.290Z,35.11
2019-05-13T17:00:34.440Z,35.73
2019-05-13T17:03:02.566Z,36.18
2019-05-13T17:05:32.627Z,36.56
2019-05-13T17:08:02.146Z,37.45
2019-05-13T17:10:31.622Z,37.89
2019-05-13T17:13:02.917Z,38.76
2019-05-13T17:15:31.213Z,39.17
2019-05-13T17:18:09.149Z,39.42
2019-05-13T17:20:29.251Z,39.90
2019-05-13T17:22:57.428Z,40.62
2019-05-13T17:25:25.526Z,40.63
2019-05-13T17:27:53.738Z,40.96
2019-05-13T17:30:22.216Z,41.57
2019-05-13T17:32:51.574Z,41.98
2019-05-13T17:35:21.898Z,43.34
2019-05-13T17:37:51.217Z,43.00
2019-05-13T17:40:19.436Z,43.27
2019-05-13T17:42:47.594Z,43.67
2019-05-13T17:45:15.784Z,44.40
2019-05-13T17:47:43.912Z,44.37
2019-05-13T17:50:12.276Z,43.85
2019-05-13T17:52:40.399Z,44.00
2019-05-13T17:55:08.732Z,43.93
2019-05-13T17:57:36.884Z,44.08
2019-05-13T18:00:05.336Z,44.56
2019-05-13T18:02:33.494Z,44.68
2019-05-13T18:05:02.178Z,45.02
2019-05-13T18:07:32.127Z,45.36
2019-05-13T18:10:01.533Z,45.58
2019-05-13T18:12:29.826Z,45.74
2019-05-13T18:14:58.000Z,45.59
2019-05-13T18:17:26.230Z,46.28
2019-05-13T18:19:54.420Z,46.58
2019-05-13T18:22:22.613Z,47.95
2019-05-13T18:24:51.893Z,47.67
2019-05-13T18:27:22.168Z,48.15
2019-05-13T18:29:51.337Z,48.56
2019-05-13T18:32:21.475Z,48.91
2019-05-13T18:34:49.448Z,50.14
2019-05-13T18:37:17.560Z,50.17
2019-05-13T18:39:45.730Z,50.35
2019-05-13T18:42:51.894Z,50.77
2019-05-13T18:45:22.058Z,51.14
2019-05-13T18:47:51.350Z,51.30
2019-05-13T18:50:21.832Z,51.85
2019-05-13T18:52:52.311Z,52.62
2019-05-13T18:55:19.603Z,52.44
2019-05-13T18:57:47.719Z,52.99
2019-05-13T19:00:15.944Z,53.28
2019-05-13T19:02:44.091Z,53.44
2019-05-13T19:05:12.407Z,54.00
2019-05-13T19:07:41.835Z,54.04
2019-05-13T19:10:11.519Z,54.83
2019-05-13T19:12:42.028Z,54.83
2019-05-13T19:15:11.366Z,55.07
2019-05-13T19:17:41.529Z,55.68
2019-05-13T19:20:11.657Z,55.86
2019-05-13T19:22:41.281Z,55.58
2019-05-13T19:25:11.994Z,56.03
2019-05-13T19:27:41.299Z,56.03
2019-05-13T19:30:11.917Z,56.33
2019-05-13T19:32:41.696Z,56.45
2019-05-13T19:35:11.700Z,56.57
2019-05-13T19:37:42.217Z,56.72
2019-05-13T19:40:09.964Z,57.14
2019-05-13T19:42:38.085Z,57.28
2019-05-13T19:45:06.451Z,57.33
2019-05-13T19:47:34.660Z,57.62
2019-05-13T19:50:02.809Z,57.64
2019-05-13T19:52:32.043Z,57.78
2019-05-13T19:55:01.782Z,58.03
2019-05-13T19:57:31.794Z,58.41
2019-05-13T20:00:01.402Z,58.43
2019-05-13T20:02:31.614Z,58.60
2019-05-13T20:05:01.210Z,60.03
2019-05-13T20:07:31.673Z,60.03
2019-05-13T20:09:59.514Z,58.89
2019-05-13T20:12:27.647Z,59.07
2019-05-13T20:14:55.831Z,58.95
2019-05-13T20:17:24.070Z,59.33
2019-05-13T20:19:53.677Z,59.65
2019-05-13T20:22:21.793Z,59.56
2019-05-13T20:24:51.423Z,59.63
2019-05-13T20:27:21.018Z,59.86
2019-05-13T20:29:51.191Z,60.13
2019-05-13T20:32:19.316Z,60.30
2019-05-13T20:34:47.535Z,60.28
2019-05-13T20:37:15.968Z,60.27
2019-05-13T20:39:44.085Z,60.63
2019-05-13T20:42:12.620Z,60.60
2019-05-13T20:44:41.979Z,60.56
2019-05-13T20:47:10.387Z,60.80
2019-05-13T20:51:15.880Z,61.68
2019-05-13T20:53:44.090Z,61.11
2019-05-13T20:56:12.263Z,61.03
2019-05-13T20:58:42.194Z,61.26
2019-05-13T21:01:11.169Z,61.37
2019-05-13T21:03:41.827Z,61.36
2019-05-13T21:06:11.557Z,61.49
2019-05-13T21:08:41.512Z,61.54
2019-05-13T21:11:11.477Z,61.80
2019-05-13T21:13:41.247Z,61.91
2019-05-13T21:16:11.450Z,61.96
2019-05-13T21:18:41.849Z,62.40
2019-05-13T21:21:11.109Z,62.24
2019-05-13T21:23:39.073Z,62.44
2019-05-13T21:26:07.837Z,62.49
2019-05-13T21:28:38.961Z,62.54
2019-05-13T21:31:07.105Z,62.79
2019-05-13T21:33:35.302Z,62.95
2019-05-13T21:36:03.476Z,63.11
2019-05-13T21:38:33.735Z,63.06
2019-05-13T21:41:03.169Z,63.27
2019-05-13T21:43:32.331Z,63.31
2019-05-13T21:46:01.947Z,63.42
2019-05-13T21:48:32.413Z,63.43
2019-05-13T21:51:00.558Z,63.76
2019-05-13T21:53:28.729Z,63.77
2019-05-13T21:55:56.944Z,63.76
2019-05-13T21:58:25.103Z,63.82
2019-05-13T22:00:54.673Z,63.79
2019-05-13T22:03:22.833Z,63.83
2019-05-13T22:05:51.618Z,64.05
2019-05-13T22:08:21.602Z,64.74
2019-05-13T22:10:52.204Z,64.33
2019-05-13T22:13:19.923Z,64.52
2019-05-13T22:15:48.144Z,64.99
2019-05-13T22:18:16.292Z,65.12
2019-05-13T22:20:49.854Z,64.97
2019-05-13T22:23:14.407Z,64.94
2019-05-13T22:25:43.782Z,65.00
2019-05-13T22:28:12.113Z,64.98
2019-05-13T22:30:41.267Z,65.11
2019-05-13T22:33:09.523Z,65.23
2019-05-13T22:35:37.700Z,65.20
2019-05-13T22:38:05.869Z,65.27
2019-05-13T22:40:34.092Z,65.47
2019-05-13T22:43:02.294Z,65.48
2019-05-13T22:45:31.302Z,65.53
2019-05-13T22:48:02.499Z,65.60
2019-05-13T22:50:31.010Z,65.57
2019-05-13T22:53:01.399Z,66.59
2019-05-13T22:55:31.184Z,65.70
2019-05-13T22:58:01.509Z,65.66
2019-05-13T23:00:31.558Z,65.69
2019-05-13T23:03:01.496Z,65.77
2019-05-13T23:05:28.985Z,65.96
2019-05-13T23:07:57.160Z,65.98
2019-05-13T23:10:25.339Z,66.05
2019-05-13T23:12:53.478Z,65.94
2019-05-13T23:15:21.619Z,66.07
2019-05-13T23:17:51.883Z,66.08
2019-05-13T23:20:21.294Z,66.10
2019-05-13T23:22:51.709Z,66.26
2019-05-13T23:25:21.432Z,66.50
2019-05-13T23:27:51.284Z,66.50
2019-05-13T23:30:19.410Z,66.59
2019-05-13T23:32:47.660Z,66.72
2019-05-13T23:35:15.855Z,66.89
2019-05-13T23:37:44.013Z,67.06
2019-05-13T23:40:12.795Z,66.99
2019-05-13T23:42:40.989Z,66.89
2019-05-13T23:45:11.286Z,67.03
2019-05-13T23:47:41.545Z,66.98
2019-05-13T23:50:09.203Z,66.90
2019-05-13T23:52:37.392Z,67.13
2019-05-13T23:55:06.263Z,67.21
2019-05-13T23:57:34.419Z,67.28
